Terminal Aerodrome Forecast
Issued by NWS Charleston, WV

Current Version | Previous Version | Graphics & Text | Print | Product List | Glossary On
Versions: 1 2 3 4 5 6 7 8 9 10 11 12 13 14 15 16 17 18 19 20 21 22 23 24 25 26 27 28
000
FTUS41 KRLX 250900 AAA
TAFEKN
TAF AMD
KEKN 250902Z 2509/2606 28006KT P6SM OVC012
     FM251500 24006KT P6SM BKN035
     FM260100 VRB03KT 6SM -RA OVC080
     FM260300 VRB03KT 5SM -RA OVC020
     FM260400 VRB03KT 2SM -RASN BR OVC008=

USA.gov is the U.S. government's official web portal to all federal, state and local government web resources and services.